Alta, West Virginia
Current Conditions -  °F | °C
As of 9:35 AM on Sunday 23 Nov 2014 (Local Time) from KLWB Reporting Station
Clear Clear  
Wind Chill:   Ceiling: Unl
Heat Index:   Visibility: 10mi
Dew Point: -3°   Wind: 5mph
Humidity: 69%   Direction: 20°NNE
Pressure: 30.17"   Gusts: NA
Location:  37.8345°N, 80.5736°W
Report Text: KLWB 231435Z AUTO 02004KT 10SM CLR 02/M03 A3017 RMK AO2 T00191033
Loading
Personal Weather Stations






























Interactive Weather Map New forecast layout! Learn more

10-Day Weather Forecast

Advertisements
Track Severe Weather on mobile